Home > Products > Valid Products > TAF

000
FTUS42 KRAH 241140
TAFRDU
TAF
KRDU 241140Z 2412/2512 06005KT P6SM FEW150 SCT250
     FM250800 17005KT P6SM SCT015 BKN035=



000
FTUS42 KRAH 241140
TAFINT
TAF
KINT 241140Z 2412/2512 VRB04KT P6SM FEW120 SCT250
     FM250900 16004KT P6SM VCSH BKN008 BKN025=



000
FTUS42 KRAH 241140
TAFGSO
TAF
KGSO 241140Z 2412/2512 VRB04KT P6SM FEW120 SCT250
     FM250900 16004KT P6SM VCSH BKN012 BKN030=



000
FTUS42 KRAH 241140
TAFFAY
TAF
KFAY 241140Z 2412/2512 07005KT P6SM FEW250
     FM250800 17005KT P6SM SCT015 BKN035=



000
FTUS42 KRAH 241140
TAFRWI
TAF
KRWI 241140Z 2412/2512 05005KT P6SM FEW150 SCT250
     FM250800 17005KT P6SM SCT018 BKN035=



000
FTUS42 KRAH 240841 AAA
TAFINT
TAF AMD
KINT 240841Z 2409/2506 03005KT P6SM FEW250
     FM241900 19007KT P6SM SCT120 SCT250=



000
FTUS42 KRAH 240841 AAA
TAFRDU
TAF AMD
KRDU 240841Z 2409/2506 04005KT P6SM FEW250=



000
FTUS42 KRAH 240841 AAA
TAFGSO
TAF AMD
KGSO 240841Z 2409/2506 03005KT P6SM FEW250
     FM241900 19007KT P6SM SCT120 SCT250=



000
FTUS42 KRAH 240540
TAFRDU
TAF
KRDU 240540Z 2406/2506 04005KT P6SM SKC=



000
FTUS42 KRAH 240540
TAFINT
TAF
KINT 240540Z 2406/2506 03005KT P6SM SKC
     FM241900 19007KT P6SM SCT120 SCT250=



000
FTUS42 KRAH 240540
TAFRWI
TAF
KRWI 240540Z 2406/2506 03005KT P6SM SKC=



000
FTUS42 KRAH 240540
TAFFAY
TAF
KFAY 240540Z 2406/2506 03005KT P6SM SKC=



000
FTUS42 KRAH 240540
TAFGSO
TAF
KGSO 240540Z 2406/2506 03005KT P6SM SKC
     FM241900 19007KT P6SM SCT120 SCT250=



000
FTUS42 KRAH 240145 AAA
TAFGSO
TAF AMD
KGSO 240145Z 2402/2424 VRB05KT P6SM FEW250=



000
FTUS42 KRAH 240145 AAA
TAFRDU
TAF AMD
KRDU 240145Z 2402/2424 VRB05KT P6SM FEW250=



000
FTUS42 KRAH 232325
TAFRDU
TAF
KRDU 232325Z 2400/2424 VRB05KT P6SM FEW250=



000
FTUS42 KRAH 232325
TAFGSO
TAF
KGSO 232325Z 2400/2424 33010KT P6SM FEW250
     FM240200 VRB05KT P6SM FEW250=



000
FTUS42 KRAH 232325
TAFINT
TAF
KINT 232325Z 2400/2424 33010KT P6SM FEW250
     FM240200 VRB05KT P6SM FEW250=



000
FTUS42 KRAH 232325
TAFFAY
TAF
KFAY 232325Z 2400/2424 35010KT P6SM FEW250
     FM240100 VRB05KT P6SM FEW250=



000
FTUS42 KRAH 232325
TAFRWI
TAF
KRWI 232325Z 2400/2424 VRB05KT P6SM FEW250=



000
FTUS42 KRAH 232201 AAB
TAFINT
TAF AMD
KINT 232201Z 2322/2418 32009G16KT P6SM FEW250
     FM240000 35005KT P6SM FEW250=



000
FTUS42 KRAH 232200 AAA
TAFGSO
TAF AMD
KGSO 232200Z 2322/2418 32009G16KT P6SM FEW250
     FM240000 VRB05KT P6SM FEW250=



000
FTUS42 KRAH 232159 AAC
TAFFAY
TAF AMD
KFAY 232159Z 2322/2418 33011G18KT P6SM SKC
     FM240000 35006KT P6SM SKC=



000
FTUS42 KRAH 232158 AAB
TAFRDU
TAF AMD
KRDU 232158Z 2322/2418 33009G16KT P6SM SKC
     FM232300 VRB05KT P6SM SKC=



000
FTUS42 KRAH 232113 AAA
TAFINT
TAF AMD
KINT 232113Z 2321/2418 32012G20KT P6SM SKC
     FM232300 35005KT P6SM SKC=



000
FTUS42 KRAH 232112 AAB
TAFFAY
TAF AMD
KFAY 232112Z 2321/2418 32013G22KT P6SM SKC
     FM232300 35006KT P6SM SKC=



000
FTUS42 KRAH 232110 AAA
TAFRWI
TAF AMD
KRWI 232110Z 2321/2418 32010G17KT P6SM SKC
     FM232300 35005KT P6SM SKC=



000
FTUS42 KRAH 232109 AAA
TAFRDU
TAF AMD
KRDU 232109Z 2321/2418 33010G20KT P6SM SKC
     FM232300 VRB05KT P6SM SKC=



000
FTUS42 KRAH 231959 AAA
TAFFAY
TAF AMD
KFAY 231959Z 2320/2418 31013G22KT P6SM SKC
     FM232300 35006KT P6SM SKC=



000
FTUS42 KRAH 231722
TAFINT
TAF
KINT 231722Z 2318/2418 31012G20KT P6SM SKC
     FM232300 35005KT P6SM SKC=



000
FTUS42 KRAH 231722
TAFGSO
TAF
KGSO 231722Z 2318/2418 32012G20KT P6SM SKC
     FM232300 VRB05KT P6SM SKC=



000
FTUS42 KRAH 231722
TAFRWI
TAF
KRWI 231722Z 2318/2418 31013G22KT P6SM SKC
     FM232300 35005KT P6SM SKC=



000
FTUS42 KRAH 231722
TAFFAY
TAF
KFAY 231722Z 2318/2418 32013G22KT P6SM SKC
     FM232300 35006KT P6SM SKC=



000
FTUS42 KRAH 231722
TAFRDU
TAF
KRDU 231722Z 2318/2418 31012G20KT P6SM SKC
     FM232300 VRB05KT P6SM SKC=



000
FTUS42 KRAH 231459 AAA
TAFRDU
TAF AMD
KRDU 231459Z 2315/2412 31013G22KT P6SM SKC
     FM232300 35005KT P6SM SKC=



000
FTUS42 KRAH 231335 AAA
TAFGSO
TAF AMD
KGSO 231335Z 2314/2412 32012G20KT P6SM SKC
     FM232300 35005KT P6SM SKC=



000
FTUS42 KRAH 231335 AAA
TAFFAY
TAF AMD
KFAY 231335Z 2314/2412 32013G22KT P6SM SKC
     FM232300 35005KT P6SM SKC=



000
FTUS42 KRAH 231120
TAFRDU
TAF
KRDU 231120Z 2312/2412 30008KT P6SM FEW200
     FM231400 32013G22KT P6SM SKC
     FM232300 35005KT P6SM SKC=



000
FTUS42 KRAH 231120
TAFFAY
TAF
KFAY 231120Z 2312/2412 30008KT P6SM SKC
     FM231400 32013G22KT P6SM SKC
     FM232300 35005KT P6SM SKC=



000
FTUS42 KRAH 231120
TAFINT
TAF
KINT 231120Z 2312/2412 33005KT P6SM SKC
     FM231400 32012G20KT P6SM SKC
     FM232300 35005KT P6SM SKC=



000
FTUS42 KRAH 231120
TAFRWI
TAF
KRWI 231120Z 2312/2412 31006KT P6SM SKC
     FM231400 32013G22KT P6SM SKC
     FM232300 35005KT P6SM SKC=



000
FTUS42 KRAH 231120
TAFGSO
TAF
KGSO 231120Z 2312/2412 33008KT P6SM FEW250
     FM231400 32012G20KT P6SM SKC
     FM232300 35005KT P6SM SKC=



000
FTUS42 KRAH 230903 AAA
TAFRDU
TAF AMD
KRDU 230903Z 2309/2406 28007KT P6SM FEW100
     FM231400 32013G22KT P6SM SKC
     FM232300 35005KT P6SM SKC=



000
FTUS42 KRAH 230903 AAA
TAFGSO
TAF AMD
KGSO 230903Z 2309/2406 30009KT P6SM SKC
     FM231400 32012G20KT P6SM SKC
     FM232300 35005KT P6SM SKC=



000
FTUS42 KRAH 230902 AAA
TAFFAY
TAF AMD
KFAY 230902Z 2309/2406 28007KT P6SM SKC
      TEMPO 2309/2312 5SM BR
     FM231400 32013G22KT P6SM SKC
     FM232300 35005KT P6SM SKC=



000
FTUS42 KRAH 230520
TAFINT
TAF
KINT 230520Z 2306/2406 29009KT P6SM SKC
     FM231400 32012G20KT P6SM SKC
     FM232300 35005KT P6SM SKC=



000
FTUS42 KRAH 230520
TAFFAY
TAF
KFAY 230520Z 2306/2406 26007KT P6SM SKC
     FM230900 30010KT P6SM SKC
     FM231400 32013G22KT P6SM SKC
     FM232300 35005KT P6SM SKC=



000
FTUS42 KRAH 230520
TAFGSO
TAF
KGSO 230520Z 2306/2406 29009KT P6SM FEW250
     FM231400 32012G20KT P6SM SKC
     FM232300 35005KT P6SM SKC=



000
FTUS42 KRAH 230520
TAFRWI
TAF
KRWI 230520Z 2306/2406 25007KT P6SM SKC
     FM230800 30010KT P6SM SKC
     FM231400 32013G22KT P6SM SKC
     FM232300 35005KT P6SM SKC=



000
FTUS42 KRAH 230520
TAFRDU
TAF
KRDU 230520Z 2306/2406 27007KT P6SM FEW250
     FM231400 32013G22KT P6SM SKC
     FM232300 35005KT P6SM SKC=



000
FTUS42 KRAH 230150 AAA
TAFRDU
TAF AMD
KRDU 230150Z 2302/2324 25006KT P6SM SCT100 BKN250
     FM230700 32007KT P6SM FEW250
     FM231400 33012G22KT P6SM FEW250=



000
FTUS42 KRAH 230148 AAA
TAFGSO
TAF AMD
KGSO 230148Z 2302/2324 26007KT P6SM FEW080 BKN200
     FM230500 32008KT P6SM FEW250
     FM231400 33012G21KT P6SM FEW250=



000
FTUS42 KRAH 222335 CCA
TAFFAY
TAF COR
KFAY 222335Z 2300/2324 27010KT P6SM BKN080 OVC100
      TEMPO 2300/2301 VRB15G25KT P6SM -SHRA SCT060 BKN080
     FM230800 32010KT P6SM FEW080 SCT250
     FM231400 33012G22KT P6SM FEW250=



000
FTUS42 KRAH 222334
TAFINT
TAF
KINT 222334Z 2300/2324 27009KT P6SM BKN080
     FM230500 32007KT P6SM FEW250
     FM231400 33012G21KT P6SM FEW250=



000
FTUS42 KRAH 222334
TAFRWI
TAF
KRWI 222334Z 2300/2324 28006KT P6SM SCT090 BKN150 OVC200
     FM230800 31008KT P6SM FEW080 SCT250
     FM231400 32013G23KT P6SM FEW250=



000
FTUS42 KRAH 222334
TAFRDU
TAF
KRDU 222334Z 2300/2324 27006KT P6SM FEW080 SCT150 OVC200
     FM230700 32007KT P6SM FEW250
     FM231400 33012G22KT P6SM FEW250=



000
FTUS42 KRAH 222334
TAFGSO
TAF
KGSO 222334Z 2300/2324 27008KT P6SM BKN080
     FM230500 32008KT P6SM FEW250
     FM231400 33012G21KT P6SM FEW250=



000
FTUS42 KRAH 222334
TAFFAY
TAF
KFAY 222334Z 2300/2324 27010KT P6SM BKN080 OVC100
      TEMPO 2300/2301 VRB15G25KT 5SM -SHRA SCT060 BKN080
     FM230800 32010KT P6SM FEW080 SCT250
     FM231400 33012G22KT P6SM FEW250=



000
FTUS42 KRAH 222259 AAE
TAFRWI
TAF AMD
KRWI 222259Z 2223/2318 27006KT P6SM SCT090 BKN150
     FM230700 32008KT P6SM FEW080 BKN250
     FM231500 34012G20KT P6SM SCT250=



000
FTUS42 KRAH 222258 AAD
TAFRDU
TAF AMD
KRDU 222258Z 2223/2318 29007KT P6SM FEW080 SCT150 OVC200
     FM230600 32006KT P6SM SCT250
     FM231500 33011G20KT P6SM SCT250=



000
FTUS42 KRAH 222209 AAD
TAFRWI
TAF AMD
KRWI 222209Z 2222/2318 23009KT P6SM FEW090 BKN120
      TEMPO 2222/2301 VRB15G27KT 5SM -SHRA
     FM230100 28008KT P6SM FEW080 BKN250
     FM231500 34012G20KT P6SM SCT250=



000
FTUS42 KRAH 222208 AAC
TAFFAY
TAF AMD
KFAY 222208Z 2222/2318 28010KT P6SM OVC100
      TEMPO 2222/2224 VRB15G25KT 5SM -SHRA SCT060 BKN080
     FM230600 32008KT P6SM SCT250
     FM231500 33012G21KT P6SM SCT250=



000
FTUS42 KRAH 222205 AAC
TAFRDU
TAF AMD
KRDU 222205Z 2222/2318 28008G16KT P6SM FEW060 BKN080 OVC250
     FM230300 VRB06KT P6SM SCT250
     FM231500 33011G20KT P6SM SCT250=



000
FTUS42 KRAH 222157 AAB
TAFFAY
TAF AMD
KFAY 222157Z 2222/2318 27010G16KT P6SM BKN100
      TEMPO 2222/2224 VRB15G25KT 5SM -SHRA SCT060 BKN080
     FM230000 31010KT P6SM FEW080 BKN250
     FM231500 33012G21KT P6SM SCT250=



000
FTUS42 KRAH 222126 AAA
TAFGSO
TAF AMD
KGSO 222126Z 2221/2318 26008KT P6SM BKN100
     FM230500 33008KT P6SM SCT250
     FM231500 34011G20KT P6SM SCT250=



000
FTUS42 KRAH 222108 AAC
TAFRWI
TAF AMD
KRWI 222108Z 2221/2318 22010G16KT P6SM FEW090 BKN120
      TEMPO 2221/2301 VRB15G27KT 5SM -SHRA
     FM230100 28008KT P6SM FEW080 BKN250
     FM231500 34012G20KT P6SM SCT250=



000
FTUS42 KRAH 222107 AAB
TAFRDU
TAF AMD
KRDU 222107Z 2221/2318 26010G18KT P6SM FEW080 BKN120
      TEMPO 2221/2223 VRB15G27KT 5SM -SHRA
     FM230000 VRB05KT P6SM SCT250
     FM231500 33011G20KT P6SM SCT250=



000
FTUS42 KRAH 222103 AAA
TAFRWI
TAF AMD
KRWI 222103Z 2221/2318 22010G16KT P6SM FEW090 BKN120
      TEMPO 2221/2301 VRB12G20KT 5SM -SHRA
     FM230100 28008KT P6SM FEW080 BKN250
     FM231500 34012G20KT P6SM SCT250=



000
FTUS42 KRAH 222103 AAB
TAFRWI
TAF AMD
KRWI 222103Z 2221/2318 22010G16KT P6SM FEW090 BKN120
      TEMPO 2221/2301 VRB15G25KT 5SM -SHRA
     FM230100 28008KT P6SM FEW080 BKN250
     FM231500 34012G20KT P6SM SCT250=



000
FTUS42 KRAH 222038 AAB
TAFINT
TAF AMD
KINT 222038Z 2221/2318 28009KT P6SM OVC090
     FM230300 30008KT P6SM SCT250
     FM231500 34011G20KT P6SM SCT250=



000
FTUS42 KRAH 222034 AAA
TAFFAY
TAF AMD
KFAY 222034Z 2221/2318 25012G19KT P6SM BKN120
      TEMPO 2221/2224 VRB15G25KT 5SM -SHRA SCT060 BKN080
     FM230000 31010KT P6SM FEW080 BKN250
     FM231500 33012G21KT P6SM SCT250=



000
FTUS42 KRAH 222009 AAA
TAFRDU
TAF AMD
KRDU 222009Z 2220/2318 26010G18KT P6SM FEW080 BKN120
      TEMPO 2220/2224 VRB12G23KT 5SM -SHRA
     FM230000 VRB05KT P6SM SCT250
     FM231500 33011G20KT P6SM SCT250=



000
FTUS42 KRAH 221811 AAA
TAFINT
TAF AMD
KINT 221811Z 2218/2318 28009KT P6SM BKN120
      TEMPO 2218/2220 VRB12G25KT 5SM -SHRA=



000
FTUS42 KRAH 221720
TAFRWI
TAF
KRWI 221720Z 2218/2318 22010KT P6SM BKN120
      TEMPO 2222/2302 VRB12G20KT 5SM -SHRA=



000
FTUS42 KRAH 221720
TAFGSO
TAF
KGSO 221720Z 2218/2318 26009KT P6SM BKN120
      TEMPO 2219/2223 VRB12G20KT 5SM -SHRA=



000
FTUS42 KRAH 221720
TAFINT
TAF
KINT 221720Z 2218/2318 28009KT P6SM BKN120
      TEMPO 2219/2223 VRB12G20KT 5SM -SHRA=



000
FTUS42 KRAH 221720
TAFFAY
TAF
KFAY 221720Z 2218/2318 25010KT P6SM BKN120
      TEMPO 2221/2301 VRB12G20KT 5SM -SHRA=



000
FTUS42 KRAH 221720
TAFRDU
TAF
KRDU 221720Z 2218/2318 25009KT P6SM BKN120
      TEMPO 2221/2301 VRB12G20KT 5SM -SHRA=



000
FTUS42 KRAH 221130
TAFGSO
TAF
KGSO 221130Z 2212/2312 24005KT P6SM BKN150
     FM221700 26012G20KT P6SM BKN060 OVC100
      TEMPO 2218/2222 6SM -SHRA BR
     FM230200 31010G15KT P6SM SCT035=



000
FTUS42 KRAH 221130
TAFRWI
TAF
KRWI 221130Z 2212/2312 22005KT P6SM SCT150
     FM222000 25012G20KT P6SM BKN060 OVC100
      TEMPO 2221/2301 6SM -SHRA BR
     FM230400 30010G15KT P6SM SCT035=



000
FTUS42 KRAH 221130
TAFINT
TAF
KINT 221130Z 2212/2312 24005KT P6SM BKN150
     FM221700 26012G20KT P6SM BKN060 OVC100
      TEMPO 2218/2222 6SM -SHRA BR
     FM230200 31010G15KT P6SM SCT035=



000
FTUS42 KRAH 221130
TAFRDU
TAF
KRDU 221130Z 2212/2312 23005KT P6SM BKN150
     FM221900 25012G20KT P6SM BKN060 OVC100
      TEMPO 2220/2224 6SM -SHRA BR
     FM230300 30010G15KT P6SM SCT035=



000
FTUS42 KRAH 221130
TAFFAY
TAF
KFAY 221130Z 2212/2312 22005KT P6SM SCT150
     FM222000 25012G20KT P6SM BKN060 OVC100 PROB30 2221/2301 6SM -RA
     FM230400 30010G15KT P6SM SCT035=



000
FTUS42 KRAH 220922 AAA
TAFRDU
TAF AMD
KRDU 220922Z 2209/2306 24004KT P6SM BKN150
     FM221900 25012G20KT P6SM BKN060 OVC100 PROB30 2220/2224 6SM -RA
     FM230300 30010G15KT P6SM SCT035=



000
FTUS42 KRAH 220921 AAA
TAFGSO
TAF AMD
KGSO 220921Z 2209/2306 24005KT P6SM BKN150
     FM221700 26012G20KT P6SM BKN060 OVC100 PROB30 2218/2222 6SM -RA
     FM230200 31010G15KT P6SM SCT035=



000
FTUS42 KRAH 220522
TAFINT
TAF
KINT 220522Z 2206/2306 23005KT P6SM BKN150
     FM221700 26012G20KT P6SM BKN060 OVC100 PROB30 2218/2222 6SM -RA
     FM230200 31010G15KT P6SM SCT035=



000
FTUS42 KRAH 220522
TAFRWI
TAF
KRWI 220522Z 2206/2306 24005KT P6SM BKN200
     FM222000 25012G20KT P6SM BKN060 OVC100 PROB30 2221/2301 6SM -RA
     FM230400 30010G15KT P6SM SCT035=



000
FTUS42 KRAH 220522
TAFFAY
TAF
KFAY 220522Z 2206/2306 24005KT P6SM BKN200
     FM222000 25012G20KT P6SM BKN060 OVC100 PROB30 2221/2301 6SM -RA
     FM230400 30010G15KT P6SM SCT035=



000
FTUS42 KRAH 220522
TAFGSO
TAF
KGSO 220522Z 2206/2306 23005KT P6SM BKN150
     FM221700 26012G20KT P6SM BKN060 OVC100 PROB30 2218/2222 6SM -RA
     FM230200 31010G15KT P6SM SCT035=



000
FTUS42 KRAH 220522
TAFRDU
TAF
KRDU 220522Z 2206/2306 24005KT P6SM BKN150
     FM221900 25012G20KT P6SM BKN060 OVC100 PROB30 2220/2224 6SM -RA
     FM230300 30010G15KT P6SM SCT035=



000
FTUS42 KRAH 220229 AAA
TAFGSO
TAF AMD
KGSO 220229Z 2202/2224 VRB02KT P6SM SCT250
     FM221500 23009G17KT P6SM BKN050 OVC100 PROB30 2218/2222 -RA=



000
FTUS42 KRAH 220229 AAA
TAFRDU
TAF AMD
KRDU 220229Z 2202/2224 VRB02KT P6SM SCT250
     FM221500 24009G17KT P6SM BKN050 OVC100 PROB30 2220/2224 -RA=



000
FTUS42 KRAH 212322
TAFFAY
TAF
KFAY 212322Z 2200/2224 VRB02KT P6SM SCT250
     FM221500 24009G17KT P6SM BKN050 OVC100 PROB30 2221/2224 -RA=



000
FTUS42 KRAH 212322
TAFRWI
TAF
KRWI 212322Z 2200/2224 VRB05KT P6SM SCT250
     FM221500 23009G17KT P6SM BKN050 OVC100 PROB30 2221/2224 -RA=



000
FTUS42 KRAH 212322
TAFGSO
TAF
KGSO 212322Z 2200/2224 VRB02KT P6SM SCT250
     FM221500 23009G17KT P6SM BKN050 OVC100 PROB30 2218/2222 -RA=



000
FTUS42 KRAH 212322
TAFRDU
TAF
KRDU 212322Z 2200/2224 VRB02KT P6SM SCT250
     FM221500 24009G17KT P6SM BKN050 OVC100 PROB30 2220/2224 -RA=



000
FTUS42 KRAH 212322
TAFINT
TAF
KINT 212322Z 2200/2224 VRB02KT P6SM SCT250
     FM221500 23009G17KT P6SM BKN050 OVC100 PROB30 2218/2222 -RA=



000
FTUS42 KRAH 211739
TAFINT
TAF
KINT 211739Z 2118/2218 VRB05KT P6SM SCT250=



000
FTUS42 KRAH 211739
TAFFAY
TAF
KFAY 211739Z 2118/2218 01009KT P6SM SCT025
     FM220000 VRB05KT P6SM SCT250=



000
FTUS42 KRAH 211739
TAFRDU
TAF
KRDU 211739Z 2118/2218 VRB05KT P6SM SCT250=



000
FTUS42 KRAH 211739
TAFRWI
TAF
KRWI 211739Z 2118/2218 VRB05KT P6SM SCT250=



000
FTUS42 KRAH 211739
TAFGSO
TAF
KGSO 211739Z 2118/2218 VRB05KT P6SM SCT250=



    US Dept of Commerce
    National Oceanic and Atmospheric Administration
    National Weather Service
    1325 East West Highway
    Silver Spring, MD 20910
    Page Author: NWS Internet Services Team
Disclaimer
Information Quality
Credits
Glossary
Privacy Policy
Freedom of Information Act (FOIA)
About Us
Career Opportunities